Darstellungsparameter: Aktuell verwendete Einstellungen:
Skalierung der Graphiken ... ?
xyx+y,   Skalierungsfaktor:      Skalierung: Modus: x, Faktor: 1
Darstellungszeitraum ... ?
Vom - - bis: - -   Zeitraum: 28.08.2010 - 28.08.2010
Min/Max/Avg-Anzeige ... ?
Zeige MMA aktuell
Zeige MMA Monat
Zeige MMA alles
Zeige --A aktuell
Zeige --A Monat
Zeige --A alles
Keine MMA-Anzeige
MMA:
Average (ber die Originaldaten)
MMA-Basis: 28.08.2010 - 28.08.2010
Quicknavigation für Darstellung... ?
Tage:      1T, 2T, 3T, 5T -1T -2T -3T -5T +1T +2T +3T +5T
Wochen: 1W, 2W, 3W -1W -2W -3W +1W +2W +3W
Monate: 1M, 3M, 6M -1M -3M -6M +1M +3M +6M
Jahre:    1J, 3J, 5J, 10J -1J -3J -5J -10J +1J +3J +5J +10J
Nutze für die Darstellung ... ?
Originaldaten oder Mittelwerte auf ...
Stundenbasis Tagesbasis Wochenbasis
Monatsbasis Jahresbasis      Datenbasis: Original-Daten
Darstellen als:
Statistik (Auto) Statistik J:M      Darstellung:
Zur Graphik,    zurück zur Übersicht aller Sensoren.
 
Tabellarische Datenbersicht: ?
 
Sensor: Nr:Datum:Temp:Abs-Feuchte:Windchill:Wind:
Aussen-T/F 1 28-08-2010 00:07:28 14.1 C 9.1 g/m*3 14.1 C 0 km/h
2 28-08-2010 00:19:28 13.9 C 9.11 g/m*3 13.9 C 0 km/h
3 28-08-2010 00:31:28 14 C 9.05 g/m*3 14 C 0 km/h
4 28-08-2010 00:43:28 13.7 C 9.35 g/m*3 13.7 C 0 km/h
5 28-08-2010 00:55:29 13.2 C 9.42 g/m*3 13.2 C 0 km/h
6 28-08-2010 01:07:29 13.2 C 9.64 g/m*3 13.2 C 0 km/h
7 28-08-2010 01:19:29 13.1 C 9.81 g/m*3 13.1 C 0 km/h
8 28-08-2010 01:31:29 13 C 9.87 g/m*3 13 C 0 km/h
9 28-08-2010 01:43:29 13.1 C 10.04 g/m*3 13.1 C 0 km/h
10 28-08-2010 01:55:29 13.1 C 10.04 g/m*3 13.1 C 0 km/h
11 28-08-2010 02:07:29 13.2 C 9.99 g/m*3 13.2 C 0 km/h
12 28-08-2010 02:19:29 13.2 C 9.99 g/m*3 13.2 C 0 km/h
13 28-08-2010 02:31:29 13.1 C 9.81 g/m*3 13.1 C 0 km/h
14 28-08-2010 02:43:29 13.1 C 9.7 g/m*3 13.1 C 0 km/h
15 28-08-2010 02:55:29 13.1 C 9.59 g/m*3 13.1 C 0 km/h
16 28-08-2010 03:07:29 13.1 C 9.59 g/m*3 13.1 C 0 km/h
17 28-08-2010 03:19:29 13.1 C 9.59 g/m*3 13.1 C 0 km/h
18 28-08-2010 03:31:29 13.1 C 9.47 g/m*3 13.1 C 0 km/h
19 28-08-2010 03:43:29 13.1 C 9.59 g/m*3 13.1 C 0 km/h
20 28-08-2010 03:55:29 13.1 C 9.59 g/m*3 13.1 C 0 km/h
21 28-08-2010 04:07:29 12.9 C 9.47 g/m*3 12.9 C 0 km/h
22 28-08-2010 04:19:30 12.9 C 9.47 g/m*3 12.9 C 0 km/h
23 28-08-2010 04:31:30 12.5 C 9.24 g/m*3 12.5 C 0 km/h
24 28-08-2010 04:43:30 12.3 C 9.23 g/m*3 12.3 C 0 km/h
25 28-08-2010 04:55:30 12.1 C 9.12 g/m*3 12.1 C 0 km/h
Sensor: Nr:Datum:Temp:Abs-Feuchte:Windchill:Wind:
Aussen-T/F 26 28-08-2010 05:07:30 12.2 C 9.28 g/m*3 12.2 C 0 km/h
27 28-08-2010 05:19:30 12.3 C 9.34 g/m*3 12.3 C 0 km/h
28 28-08-2010 05:31:30 12.1 C 9.01 g/m*3 12.1 C 0 km/h
29 28-08-2010 05:43:30 11.9 C 9 g/m*3 11.9 C 0 km/h
30 28-08-2010 05:55:30 12.1 C 9.12 g/m*3 12.1 C 0 km/h
31 28-08-2010 06:07:30 11.7 C 8.89 g/m*3 11.7 C 0 km/h
32 28-08-2010 06:19:30 11.6 C 8.83 g/m*3 11.6 C 0 km/h
33 28-08-2010 06:31:30 11.7 C 8.79 g/m*3 11.7 C 0 km/h
34 28-08-2010 06:43:30 11.5 C 8.68 g/m*3 11.5 C 0 km/h
35 28-08-2010 06:55:02 11.4 C 8.62 g/m*3 11.4 C 0 km/h
36 28-08-2010 07:07:02 11.3 C 8.67 g/m*3 11.3 C 0 km/h
37 28-08-2010 07:19:02 11.3 C 8.77 g/m*3 11.3 C 0 km/h
38 28-08-2010 07:31:01 11.6 C 8.94 g/m*3 11.6 C 0 km/h
39 28-08-2010 07:43:01 12 C 8.95 g/m*3 12 C 0 km/h
40 28-08-2010 07:55:02 12.4 C 9.07 g/m*3 12.4 C 0 km/h
41 28-08-2010 08:07:01 12.6 C 9.07 g/m*3 12.6 C 0 km/h
42 28-08-2010 08:19:02 12.8 C 8.96 g/m*3 12.8 C 0 km/h
43 28-08-2010 08:31:01 13 C 8.85 g/m*3 13 C 0 km/h
44 28-08-2010 08:43:01 13.4 C 8.95 g/m*3 13.4 C 0 km/h
45 28-08-2010 08:55:02 13.6 C 8.83 g/m*3 13.6 C 0 km/h
46 28-08-2010 09:07:02 14.3 C 8.97 g/m*3 14.3 C 0 km/h
47 28-08-2010 09:19:01 14.2 C 8.55 g/m*3 14.2 C 0 km/h
48 28-08-2010 09:31:02 14.1 C 8.62 g/m*3 14.1 C 0 km/h
49 28-08-2010 09:43:02 14.1 C 8.37 g/m*3 14.1 C 0 km/h
50 28-08-2010 09:55:02 14.4 C 8.41 g/m*3 14.4 C 0 km/h
Sensor: Nr:Datum:Temp:Abs-Feuchte:Windchill:Wind:
Aussen-T/F 51 28-08-2010 10:07:02 14.6 C 8.38 g/m*3 14.6 C 0 km/h
52 28-08-2010 10:19:02 14.6 C 8.38 g/m*3 14.6 C 0 km/h
53 28-08-2010 10:31:02 15.1 C 8.39 g/m*3 15.1 C 0 km/h
54 28-08-2010 10:43:02 15.6 C 8.51 g/m*3 15.6 C 0 km/h
55 28-08-2010 10:55:02 15.8 C 8.08 g/m*3 15.8 C 0 km/h
56 28-08-2010 11:07:03 15.8 C 8.21 g/m*3 15.8 C 0 km/h
57 28-08-2010 11:19:02 16.4 C 7.96 g/m*3 16.4 C 0 km/h
58 28-08-2010 11:31:03 16.9 C 7.77 g/m*3 16.9 C 0 km/h
59 28-08-2010 11:43:03 16.7 C 7.25 g/m*3 16.7 C 0 km/h
60 28-08-2010 11:55:02 16.4 C 7.82 g/m*3 16.4 C 0 km/h
61 28-08-2010 12:07:02 17 C 7.67 g/m*3 17 C 0 km/h
62 28-08-2010 12:19:02 18 C 7.22 g/m*3 18 C 0 km/h
63 28-08-2010 12:31:02 13.7 C 8.05 g/m*3 13.7 C 0 km/h
64 28-08-2010 12:43:02 13.7 C 9.35 g/m*3 13.7 C 0 km/h
65 28-08-2010 12:55:02 14.7 C 10.58 g/m*3 14.7 C 0 km/h
66 28-08-2010 13:07:02 15.7 C 10.84 g/m*3 15.7 C 0 km/h
67 28-08-2010 13:19:03 15.8 C 10.23 g/m*3 15.8 C 0 km/h
68 28-08-2010 13:31:02 15.5 C 10.31 g/m*3 15.5 C 0 km/h
69 28-08-2010 13:43:02 17.2 C 11.57 g/m*3 17.2 C 0 km/h
70 28-08-2010 13:55:03 17 C 10.13 g/m*3 17 C 0 km/h
71 28-08-2010 14:07:02 15.8 C 8.88 g/m*3 15.8 C 0 km/h
72 28-08-2010 14:19:03 16.8 C 8.01 g/m*3 16.8 C 0 km/h
73 28-08-2010 14:31:02 15.9 C 6.91 g/m*3 15.9 C 0 km/h
74 28-08-2010 14:43:02 14.9 C 7.01 g/m*3 14.9 C 0 km/h
75 28-08-2010 14:55:02 14.6 C 7.63 g/m*3 14.6 C 0 km/h
Sensor: Nr:Datum:Temp:Abs-Feuchte:Windchill:Wind:
Aussen-T/F 76 28-08-2010 15:07:02 14.7 C 7.68 g/m*3 14.7 C 0 km/h
77 28-08-2010 15:19:02 15.8 C 7.94 g/m*3 15.8 C 0 km/h
78 28-08-2010 15:31:03 17.6 C 7.65 g/m*3 17.6 C 0 km/h
79 28-08-2010 15:43:03 17.9 C 6.72 g/m*3 17.9 C 0 km/h
80 28-08-2010 15:55:02 17.6 C 7.05 g/m*3 17.6 C 0 km/h
81 28-08-2010 16:07:01 17 C 6.8 g/m*3 17 C 0 km/h
82 28-08-2010 16:19:02 14.9 C 7.65 g/m*3 14.9 C 0 km/h
83 28-08-2010 16:31:02 13.9 C 8.27 g/m*3 13.9 C 0 km/h
84 28-08-2010 16:43:02 14.5 C 8.95 g/m*3 14.5 C 0 km/h
85 28-08-2010 16:55:01 15.2 C 8.44 g/m*3 15.2 C 0 km/h
86 28-08-2010 17:07:02 15.9 C 9.21 g/m*3 15.9 C 0 km/h
87 28-08-2010 17:19:01 16 C 8.72 g/m*3 16 C 0 km/h
88 28-08-2010 17:31:02 15.7 C 8.3 g/m*3 15.7 C 0 km/h
89 28-08-2010 17:43:02 15.2 C 8.05 g/m*3 15.2 C 0 km/h
90 28-08-2010 17:55:01 15.2 C 9.09 g/m*3 15.2 C 0 km/h
91 28-08-2010 18:07:02 16.2 C 8.27 g/m*3 16.2 C 0 km/h
92 28-08-2010 18:19:01 17 C 6.95 g/m*3 17 C 0 km/h
93 28-08-2010 18:31:02 18.1 C 7.26 g/m*3 18.1 C 0 km/h
94 28-08-2010 18:43:02 18.3 C 7.04 g/m*3 18.3 C 0 km/h
95 28-08-2010 18:55:01 18.2 C 7.46 g/m*3 18.2 C 0 km/h
96 28-08-2010 19:07:02 16.8 C 7.86 g/m*3 16.8 C 0 km/h
97 28-08-2010 19:19:02 16.1 C 7.95 g/m*3 16.1 C 0 km/h
98 28-08-2010 19:31:02 15 C 8.59 g/m*3 15 C 0 km/h
99 28-08-2010 19:43:02 14.2 C 8.79 g/m*3 14.2 C 0 km/h
100 28-08-2010 19:55:01 14.2 C 8.3 g/m*3 14.2 C 0 km/h
Sensor: Nr:Datum:Temp:Abs-Feuchte:Windchill:Wind:
Aussen-T/F 101 28-08-2010 20:07:02 13.4 C 8.6 g/m*3 13.4 C 0 km/h
102 28-08-2010 20:19:02 13 C 8.85 g/m*3 13 C 0 km/h
103 28-08-2010 20:31:01 13.1 C 9.13 g/m*3 13.1 C 0 km/h
104 28-08-2010 20:43:01 13.1 C 9.24 g/m*3 13.1 C 0 km/h
105 28-08-2010 20:55:02 12.9 C 9.35 g/m*3 12.9 C 0 km/h
106 28-08-2010 21:07:01 12.8 C 9.3 g/m*3 12.8 C 0 km/h
107 28-08-2010 21:19:02 12.7 C 9.24 g/m*3 12.7 C 0 km/h
108 28-08-2010 21:31:01 12.4 C 9.07 g/m*3 12.4 C 0 km/h
109 28-08-2010 21:43:01 12.2 C 8.96 g/m*3 12.2 C 0 km/h
110 28-08-2010 21:55:02 12.2 C 9.06 g/m*3 12.2 C 0 km/h
111 28-08-2010 22:08:02 12.3 C 9.12 g/m*3 12.3 C 0 km/h
112 28-08-2010 22:20:02 12.3 C 9.01 g/m*3 12.3 C 0 km/h
113 28-08-2010 22:32:03 12.2 C 8.85 g/m*3 12.2 C 0 km/h
114 28-08-2010 22:44:03 12.1 C 8.79 g/m*3 12.1 C 0 km/h
115 28-08-2010 22:56:03 12.3 C 9.01 g/m*3 12.3 C 0 km/h
116 28-08-2010 23:08:03 12.6 C 8.96 g/m*3 12.6 C 0 km/h
117 28-08-2010 23:20:03 12.7 C 8.79 g/m*3 12.7 C 0 km/h
118 28-08-2010 23:32:03 12.4 C 8.74 g/m*3 12.4 C 0 km/h
119 28-08-2010 23:44:03 12.1 C 8.58 g/m*3 12.1 C 0 km/h
120 28-08-2010 23:56:03 12 C 8.53 g/m*3 12 C 0 km/h

Legende:
   Min
   Max


Maximal/Minimal-Werte vom 28.08.2010 - 28.08.2010

Sensor Min Max Avg
Temp
(Aussen-T/F)
11.3 °C
28-08-2010  07:07:02
18.3 °C
28-08-2010  18:43:02
14.07 °C
Abs-Feuchte
(Aussen-T/F)
6.72 g/m*3
28-08-2010  15:43:03
11.57 g/m*3
28-08-2010  13:43:02
8.71 g/m*3
Windchill
(Aussen-T/F)
11.3 C
28-08-2010  07:07:02
18.3 C
28-08-2010  18:43:02
13.95 C

Die Daten stammen von einer Davis Vantage Pro 2 Wetter-Station und werden unter Linux mit der Software wview2wettercgi und aufbereitet. Alle Angaben erfolgen ohne Gewähr für ihre Vollständigkeit oder Richtigkeit.
Kontakt: Rainer Krienke krienke@uni-koblenz.de . Meine Webseiten an der Uni Koblenz oder privat.
Version: $Revision: 0.78 $